White Lake charter Township, MI

7:24 PM EDT on August 03, 2015 (GMT -0400)
White Lake, MI | | Change Station
CLOSE
Current Station
Personal Weather Station
Location: White Lake Township, MI
Elevation: 1050 ft
Nearby Weather Stations

Elev 1050 ft 42.67 °N, 83.50 °W | Updated 4 minutes ago

Partly Cloudy
Partly Cloudy
72.9 °F
Feels Like 77 °F
N
2.0
Wind Variable Wind from NW
Gusts 2.0 mph

Today
High -- | Low -- °F
--% Chance of Precip.
Yesterday
High -- | Low -- °F
Precip. -- in
6:27 AM 8:52 PM
Waning Gibbous, 83% visible
Pressure 29.78 in
Visibility 10.0 miles
Clouds Scattered Clouds 6000 ft
Heat Index 77 °F
Dew Point 57 °F
Humidity 58%
Rainfall 0.34 in
Snow Depth Not available.
UV 1 out of 12
Pollen 3.70 out of 12
Air Quality Not available.
Flu Activity Not available.
METAR KPTK 032253Z 28013KT 10SM SCT060 23/13 A2979 RMK AO2 SLP083 T02330128

More Conditions Fewer Conditions

Pressure 29.78 in
Visibility 10.0 miles
Clouds Scattered Clouds 6000 ft
Heat Index 77 °F
Dew Point 57 °F
Humidity 58%
Rainfall 0.34 in
Snow Depth Not available.
UV 1 out of 12
Pollen 3.70 out of 12
Air Quality Not available.
Flu Activity Not available.
METAR KPTK 032253Z 28013KT 10SM SCT060 23/13 A2979 RMK AO2 SLP083 T02330128

More Conditions Fewer Conditions

10-Day Weather Forecast

×

Almanac

Astronomy

Aug. 03, 2015 Rise Set
Actual Time
Civil Twilight
Nautical Twilight
Astronomical Twilight
Moon
Length of Visible Light
Length of Day
Tomorrow will be .
, % of the Moon is Illuminated

Today's Extremes

State Highs State Lows

Community

WunderPhotos

Upload Photos

1,843,786 photos uploaded!

WunderBlogs® & News

Nearby

Air Quality

  Air Quality AQ Index Pollutant
Not available.

Snow Depth

Station Depth Elevation

Earthquake Activity

City Distance Mag. Time & Date
Minimum magnitude displayed is 2.5.

Coastal Water Temperatures

Place Temperature

Stations

Nearby Weather Stations

Station Location Temp. Windchill Dew Point Humidity Wind Precip. Elev Updated Type